createdAt,value
2022-12-01T00:03:49.448Z,0
2022-12-01T00:08:51.682Z,0
2022-12-01T00:13:55.847Z,0
2022-12-01T00:19:00.010Z,0
2022-12-01T00:24:04.237Z,0
2022-12-01T00:29:08.344Z,0
2022-12-01T00:39:16.702Z,0
2022-12-01T00:44:20.822Z,0
2022-12-01T00:49:25.004Z,0
2022-12-01T00:54:29.168Z,0
2022-12-01T00:59:33.353Z,0
2022-12-01T01:04:37.508Z,0
2022-12-01T01:09:41.671Z,0
2022-12-01T01:14:45.828Z,0
2022-12-01T01:19:50.308Z,0
2022-12-01T01:24:54.179Z,0
2022-12-01T01:29:58.302Z,0
2022-12-01T01:35:02.482Z,0
2022-12-01T01:40:06.638Z,0
2022-12-01T01:45:10.802Z,0
2022-12-01T01:50:14.961Z,0
2022-12-01T01:55:19.151Z,0
2022-12-01T02:00:21.370Z,0
2022-12-01T02:05:25.623Z,0
2022-12-01T02:10:27.875Z,0
2022-12-01T02:15:31.986Z,0
2022-12-01T02:25:40.332Z,0
2022-12-01T02:30:44.529Z,0
2022-12-01T02:35:48.664Z,0
2022-12-01T02:40:52.817Z,0
2022-12-01T02:45:57.084Z,0
2022-12-01T02:51:01.154Z,0
2022-12-01T02:56:05.307Z,0
2022-12-01T03:01:09.498Z,0
2022-12-01T03:06:13.607Z,0
2022-12-01T03:11:17.815Z,0
2022-12-01T03:16:22.010Z,0
2022-12-01T03:21:26.111Z,0
2022-12-01T03:26:30.262Z,0
2022-12-01T03:31:34.523Z,0
2022-12-01T03:36:38.602Z,0
2022-12-01T03:41:42.756Z,0
2022-12-01T03:46:46.926Z,0
2022-12-01T03:51:51.093Z,0
2022-12-01T03:56:55.248Z,0
2022-12-01T04:01:57.612Z,0
2022-12-01T04:07:01.666Z,0
2022-12-01T04:12:03.998Z,0
2022-12-01T04:17:08.122Z,0
2022-12-01T04:22:12.283Z,0
2022-12-01T04:27:16.443Z,0
2022-12-01T04:32:20.713Z,0
2022-12-01T04:37:24.775Z,0
2022-12-01T04:42:28.940Z,0
2022-12-01T04:47:33.136Z,0
2022-12-01T04:52:37.274Z,0
2022-12-01T04:57:41.438Z,0
2022-12-01T05:02:45.599Z,0
2022-12-01T05:07:49.800Z,0
2022-12-01T05:12:53.916Z,0
2022-12-01T05:17:58.080Z,0
2022-12-01T05:23:06.323Z,0
2022-12-01T05:28:06.414Z,0
2022-12-01T05:33:10.574Z,0
2022-12-01T05:38:14.752Z,0
2022-12-01T05:43:21.669Z,0
2022-12-01T05:48:23.299Z,0
2022-12-01T05:53:27.211Z,0
2022-12-01T05:58:29.489Z,0
2022-12-01T06:03:33.676Z,0
2022-12-01T06:08:35.958Z,0
2022-12-01T06:13:40.111Z,0
2022-12-01T06:18:44.277Z,0
2022-12-01T06:23:48.418Z,0
2022-12-01T06:28:52.581Z,0
2022-12-01T06:33:56.747Z,0
2022-12-01T06:39:00.927Z,0
2022-12-01T06:44:05.073Z,0
2022-12-01T06:49:09.213Z,0
2022-12-01T06:54:13.397Z,0
2022-12-01T06:59:15.679Z,2
2022-12-01T07:04:19.856Z,5
2022-12-01T07:09:23.993Z,8
2022-12-01T07:14:28.154Z,14
2022-12-01T07:19:32.310Z,20
2022-12-01T07:24:36.476Z,35
2022-12-01T07:29:40.676Z,42
2022-12-01T07:34:44.828Z,59
2022-12-01T07:39:49.269Z,77
2022-12-01T07:44:53.161Z,104
2022-12-01T07:49:57.327Z,142
2022-12-01T07:54:59.576Z,142
2022-12-01T08:00:03.728Z,205
2022-12-01T08:05:07.896Z,280
2022-12-01T08:10:10.194Z,185
2022-12-01T08:15:14.386Z,170
2022-12-01T08:20:23.696Z,185
2022-12-01T08:25:23.374Z,235
2022-12-01T08:30:26.854Z,270
2022-12-01T08:35:30.978Z,324
2022-12-01T08:40:35.168Z,389
2022-12-01T08:45:39.340Z,422
2022-12-01T08:50:43.471Z,407
2022-12-01T08:55:47.666Z,357
2022-12-01T09:00:51.818Z,329
2022-12-01T09:05:55.985Z,300
2022-12-01T09:11:00.172Z,384
2022-12-01T09:16:04.445Z,475
2022-12-01T09:21:08.482Z,459
2022-12-01T09:26:13.817Z,650
2022-12-01T09:31:16.854Z,665
2022-12-01T09:36:20.940Z,684
2022-12-01T09:41:25.146Z,928
2022-12-01T09:46:29.414Z,995
2022-12-01T09:51:33.424Z,1128
2022-12-01T09:56:35.743Z,1264
2022-12-01T10:01:39.918Z,983
2022-12-01T10:06:44.104Z,834
2022-12-01T10:11:46.336Z,1043
2022-12-01T10:16:50.493Z,1153
2022-12-01T10:21:54.661Z,1962
2022-12-01T10:26:58.828Z,2127
2022-12-01T10:32:03.048Z,1654
2022-12-01T10:37:07.147Z,1533
2022-12-01T10:42:11.302Z,1975
2022-12-01T10:47:15.459Z,1561
2022-12-01T10:52:19.639Z,2401
2022-12-01T10:57:23.779Z,2170
2022-12-01T11:07:32.166Z,2910
2022-12-01T11:12:36.316Z,3330
2022-12-01T11:17:40.437Z,4415
2022-12-01T11:22:44.584Z,4310
2022-12-01T11:27:48.766Z,3553
2022-12-01T11:32:52.963Z,3115
2022-12-01T11:38:21.019Z,2400
2022-12-01T11:43:01.266Z,2825
2022-12-01T11:48:05.409Z,2745
2022-12-01T11:53:09.566Z,2115
2022-12-01T11:58:11.848Z,2045
2022-12-01T12:03:16.079Z,3909
2022-12-01T12:08:18.275Z,3681
2022-12-01T12:13:22.420Z,3493
2022-12-01T12:18:26.630Z,3015
2022-12-01T12:23:30.760Z,2905
2022-12-01T12:28:34.935Z,2036
2022-12-01T12:33:39.143Z,3550
2022-12-01T12:38:43.271Z,2580
2022-12-01T12:43:47.422Z,2746
2022-12-01T12:49:12.158Z,2437
2022-12-01T12:53:55.796Z,2142
2022-12-01T12:58:59.918Z,1720
2022-12-01T13:04:04.064Z,2335
2022-12-01T13:09:08.271Z,2262
2022-12-01T13:14:12.420Z,2630
2022-12-01T13:19:16.538Z,2460
2022-12-01T13:24:23.343Z,2045
2022-12-01T13:29:24.882Z,1942
2022-12-01T13:34:29.086Z,1484
2022-12-01T13:39:33.234Z,1277
2022-12-01T13:44:37.401Z,1544
2022-12-01T13:49:41.541Z,1264
2022-12-01T13:54:43.826Z,1461
2022-12-01T13:59:48.362Z,1752
2022-12-01T14:04:52.307Z,1775
2022-12-01T14:09:56.325Z,1729
2022-12-01T14:15:00.519Z,1479
2022-12-01T14:20:04.598Z,1431
2022-12-01T14:25:08.805Z,1280
2022-12-01T14:30:12.949Z,1056
2022-12-01T14:35:17.096Z,804
2022-12-01T14:40:21.391Z,663
2022-12-01T14:45:25.462Z,607
2022-12-01T14:50:29.615Z,541
2022-12-01T14:55:33.789Z,569
2022-12-01T15:00:37.977Z,405
2022-12-01T15:05:42.120Z,320
2022-12-01T15:10:46.279Z,237
2022-12-01T15:15:50.414Z,184
2022-12-01T15:20:54.662Z,130
2022-12-01T15:25:58.769Z,90
2022-12-01T15:31:02.942Z,65
2022-12-01T15:36:07.062Z,42
2022-12-01T15:41:30.210Z,25
2022-12-01T15:46:13.551Z,16
2022-12-01T15:51:15.813Z,7
2022-12-01T15:56:19.959Z,3
2022-12-01T16:01:22.263Z,1
2022-12-01T16:06:26.394Z,0
2022-12-01T16:11:30.565Z,0
2022-12-01T16:16:34.775Z,0
2022-12-01T16:21:38.876Z,0
2022-12-01T16:26:43.065Z,0
2022-12-01T16:32:12.590Z,0
2022-12-01T16:36:51.364Z,0
2022-12-01T16:41:55.592Z,0
2022-12-01T16:46:59.721Z,0
2022-12-01T16:52:16.014Z,0
2022-12-01T16:57:08.036Z,0
2022-12-01T17:02:12.260Z,0
2022-12-01T17:07:16.331Z,0
2022-12-01T17:12:20.526Z,0
2022-12-01T17:17:24.693Z,0
2022-12-01T17:22:29.003Z,0
2022-12-01T17:27:32.990Z,0
2022-12-01T17:32:37.176Z,0
2022-12-01T17:37:41.330Z,0
2022-12-01T17:42:48.724Z,0
2022-12-01T17:47:47.787Z,0
2022-12-01T17:52:51.942Z,0
2022-12-01T17:57:56.071Z,0
2022-12-01T18:02:58.435Z,0
2022-12-01T18:08:02.574Z,0
2022-12-01T18:13:06.709Z,0
2022-12-01T18:18:10.848Z,0
2022-12-01T18:23:15.024Z,0
2022-12-01T18:28:19.153Z,0
2022-12-01T18:33:23.357Z,0
2022-12-01T18:38:27.519Z,0
2022-12-01T18:43:31.650Z,0
2022-12-01T18:48:35.870Z,0
2022-12-01T18:53:40.028Z,0
2022-12-01T18:58:44.166Z,0
2022-12-01T19:03:48.312Z,0
2022-12-01T19:08:52.488Z,0
2022-12-01T19:13:56.631Z,0
2022-12-01T19:19:00.848Z,0
2022-12-01T19:24:04.989Z,0
2022-12-01T19:29:09.152Z,0
2022-12-01T19:34:13.361Z,0
2022-12-01T19:39:17.463Z,0
2022-12-01T19:44:21.656Z,0
2022-12-01T19:49:23.950Z,0
2022-12-01T19:54:28.070Z,0
2022-12-01T19:59:32.237Z,0
2022-12-01T20:04:36.410Z,0
2022-12-01T20:09:44.362Z,0
2022-12-01T20:14:44.768Z,0
2022-12-01T20:19:48.918Z,0
2022-12-01T20:24:53.320Z,0
2022-12-01T20:29:57.226Z,0
2022-12-01T20:35:01.419Z,0
2022-12-01T20:40:05.566Z,0
2022-12-01T20:45:09.730Z,0
2022-12-01T20:50:13.877Z,0
2022-12-01T20:55:18.033Z,0
2022-12-01T21:00:22.207Z,0
2022-12-01T21:05:26.340Z,0
2022-12-01T21:10:30.549Z,0
2022-12-01T21:15:34.723Z,0
2022-12-01T21:20:38.885Z,0
2022-12-01T21:25:43.044Z,0
2022-12-01T21:30:47.219Z,0
2022-12-01T21:35:49.475Z,0
2022-12-01T21:40:53.652Z,0
2022-12-01T21:45:55.938Z,0
2022-12-01T21:51:00.077Z,0
2022-12-01T21:56:02.339Z,0
2022-12-01T22:01:06.536Z,0
2022-12-01T22:06:30.382Z,0
2022-12-01T22:11:14.823Z,0
2022-12-01T22:16:19.036Z,0
2022-12-01T22:21:23.136Z,0
2022-12-01T22:26:27.350Z,0
2022-12-01T22:31:31.544Z,0
2022-12-01T22:36:35.629Z,0
2022-12-01T22:41:39.827Z,0
2022-12-01T22:46:44.031Z,0
2022-12-01T22:51:48.141Z,0
2022-12-01T22:56:52.345Z,0
2022-12-01T23:01:56.563Z,0
2022-12-01T23:07:00.647Z,0
2022-12-01T23:12:04.815Z,0
2022-12-01T23:17:08.981Z,0
2022-12-01T23:22:13.130Z,0
2022-12-01T23:27:17.270Z,0
2022-12-01T23:32:21.483Z,0
2022-12-01T23:37:25.666Z,0
2022-12-01T23:42:27.872Z,0
2022-12-01T23:47:32.084Z,0
2022-12-01T23:52:34.310Z,0
2022-12-01T23:57:36.614Z,0
